sensor_id;sensor_type;location;lat;lon;timestamp;temperature;humidity
9810;DHT22;4944;52.514;13.192;2023-05-03T00:02:06;10.10;99.90
9810;DHT22;4944;52.514;13.192;2023-05-03T00:04:34;10.00;99.90
9810;DHT22;4944;52.514;13.192;2023-05-03T00:07:01;10.00;99.90
9810;DHT22;4944;52.514;13.192;2023-05-03T00:09:28;10.10;99.90
9810;DHT22;4944;52.514;13.192;2023-05-03T00:11:55;10.10;99.90
9810;DHT22;4944;52.514;13.192;2023-05-03T00:14:22;10.10;99.90
9810;DHT22;4944;52.514;13.192;2023-05-03T00:16:49;10.10;99.90
9810;DHT22;4944;52.514;13.192;2023-05-03T00:19:16;10.10;99.90
9810;DHT22;4944;52.514;13.192;2023-05-03T00:21:45;10.10;99.90
9810;DHT22;4944;52.514;13.192;2023-05-03T00:24:12;10.10;99.90
9810;DHT22;4944;52.514;13.192;2023-05-03T00:26:39;10.00;99.90
9810;DHT22;4944;52.514;13.192;2023-05-03T00:29:06;10.10;99.90
9810;DHT22;4944;52.514;13.192;2023-05-03T00:31:33;10.10;99.90
9810;DHT22;4944;52.514;13.192;2023-05-03T00:34:00;10.00;99.90
9810;DHT22;4944;52.514;13.192;2023-05-03T00:36:26;10.00;99.90
9810;DHT22;4944;52.514;13.192;2023-05-03T00:38:55;10.10;99.90
9810;DHT22;4944;52.514;13.192;2023-05-03T00:41:21;10.10;99.90
9810;DHT22;4944;52.514;13.192;2023-05-03T00:43:49;10.10;99.90
9810;DHT22;4944;52.514;13.192;2023-05-03T00:46:16;10.10;99.90
9810;DHT22;4944;52.514;13.192;2023-05-03T00:48:43;10.00;99.90
9810;DHT22;4944;52.514;13.192;2023-05-03T00:51:12;9.90;99.90
9810;DHT22;4944;52.514;13.192;2023-05-03T00:53:40;9.80;99.90
9810;DHT22;4944;52.514;13.192;2023-05-03T00:56:09;9.90;99.90
9810;DHT22;4944;52.514;13.192;2023-05-03T00:58:37;9.70;99.90
9810;DHT22;4944;52.514;13.192;2023-05-03T01:01:05;9.70;99.90
9810;DHT22;4944;52.514;13.192;2023-05-03T01:03:33;9.70;99.90
9810;DHT22;4944;52.514;13.192;2023-05-03T01:06:05;9.70;99.90
9810;DHT22;4944;52.514;13.192;2023-05-03T01:08:37;9.60;99.90
9810;DHT22;4944;52.514;13.192;2023-05-03T01:11:13;9.70;99.90
9810;DHT22;4944;52.514;13.192;2023-05-03T01:13:48;9.70;99.90
9810;DHT22;4944;52.514;13.192;2023-05-03T01:16:22;9.80;99.90
9810;DHT22;4944;52.514;13.192;2023-05-03T01:18:51;9.70;99.90
9810;DHT22;4944;52.514;13.192;2023-05-03T01:21:20;9.70;99.90
9810;DHT22;4944;52.514;13.192;2023-05-03T01:23:55;9.80;99.90
9810;DHT22;4944;52.514;13.192;2023-05-03T01:26:25;9.80;99.90
9810;DHT22;4944;52.514;13.192;2023-05-03T01:28:53;9.80;99.90
9810;DHT22;4944;52.514;13.192;2023-05-03T01:31:27;9.80;99.90
9810;DHT22;4944;52.514;13.192;2023-05-03T01:34:06;9.80;99.90
9810;DHT22;4944;52.514;13.192;2023-05-03T01:36:36;9.80;99.90
9810;DHT22;4944;52.514;13.192;2023-05-03T01:39:07;9.80;99.90
9810;DHT22;4944;52.514;13.192;2023-05-03T01:41:39;9.80;99.90
9810;DHT22;4944;52.514;13.192;2023-05-03T01:44:08;9.80;99.90
9810;DHT22;4944;52.514;13.192;2023-05-03T01:46:41;9.70;99.90
9810;DHT22;4944;52.514;13.192;2023-05-03T01:49:08;9.70;99.90
9810;DHT22;4944;52.514;13.192;2023-05-03T01:51:35;9.70;99.90
9810;DHT22;4944;52.514;13.192;2023-05-03T01:54:03;9.80;99.90
9810;DHT22;4944;52.514;13.192;2023-05-03T01:56:34;9.70;99.90
9810;DHT22;4944;52.514;13.192;2023-05-03T01:59:03;9.70;99.90
9810;DHT22;4944;52.514;13.192;2023-05-03T02:01:30;9.70;99.90
9810;DHT22;4944;52.514;13.192;2023-05-03T02:03:57;9.70;99.90
9810;DHT22;4944;52.514;13.192;2023-05-03T02:06:24;9.60;99.90
9810;DHT22;4944;52.514;13.192;2023-05-03T02:08:51;9.60;99.90
9810;DHT22;4944;52.514;13.192;2023-05-03T02:11:18;9.60;99.90
9810;DHT22;4944;52.514;13.192;2023-05-03T02:13:47;9.60;99.90
9810;DHT22;4944;52.514;13.192;2023-05-03T02:16:15;9.60;99.90
9810;DHT22;4944;52.514;13.192;2023-05-03T02:18:42;9.60;99.90
9810;DHT22;4944;52.514;13.192;2023-05-03T02:21:09;9.60;99.90
9810;DHT22;4944;52.514;13.192;2023-05-03T02:23:37;9.60;99.90
9810;DHT22;4944;52.514;13.192;2023-05-03T02:26:04;9.50;99.90
9810;DHT22;4944;52.514;13.192;2023-05-03T02:28:31;9.40;99.90
9810;DHT22;4944;52.514;13.192;2023-05-03T02:30:59;9.30;99.90
9810;DHT22;4944;52.514;13.192;2023-05-03T02:33:32;9.20;99.90
9810;DHT22;4944;52.514;13.192;2023-05-03T02:35:58;9.20;99.90
9810;DHT22;4944;52.514;13.192;2023-05-03T02:38:26;9.20;99.90
9810;DHT22;4944;52.514;13.192;2023-05-03T02:40:53;9.20;99.90
9810;DHT22;4944;52.514;13.192;2023-05-03T02:43:21;9.20;99.90
9810;DHT22;4944;52.514;13.192;2023-05-03T02:45:48;9.20;99.90
9810;DHT22;4944;52.514;13.192;2023-05-03T02:48:15;9.20;99.90
9810;DHT22;4944;52.514;13.192;2023-05-03T02:50:43;9.20;99.90
9810;DHT22;4944;52.514;13.192;2023-05-03T02:53:10;9.20;99.90
9810;DHT22;4944;52.514;13.192;2023-05-03T02:55:38;9.10;99.90
9810;DHT22;4944;52.514;13.192;2023-05-03T02:58:05;9.10;99.90
9810;DHT22;4944;52.514;13.192;2023-05-03T03:00:32;9.00;99.90
9810;DHT22;4944;52.514;13.192;2023-05-03T03:02:59;9.00;99.90
9810;DHT22;4944;52.514;13.192;2023-05-03T03:05:25;9.00;99.90
9810;DHT22;4944;52.514;13.192;2023-05-03T03:07:54;9.00;99.90
9810;DHT22;4944;52.514;13.192;2023-05-03T03:10:21;8.90;99.90
9810;DHT22;4944;52.514;13.192;2023-05-03T03:12:48;8.90;99.90
9810;DHT22;4944;52.514;13.192;2023-05-03T03:15:15;8.80;99.90
9810;DHT22;4944;52.514;13.192;2023-05-03T03:17:41;8.70;99.90
9810;DHT22;4944;52.514;13.192;2023-05-03T03:20:09;8.70;99.90
9810;DHT22;4944;52.514;13.192;2023-05-03T03:22:37;8.60;99.90
9810;DHT22;4944;52.514;13.192;2023-05-03T03:25:06;8.60;99.90
9810;DHT22;4944;52.514;13.192;2023-05-03T03:27:33;8.60;99.90
9810;DHT22;4944;52.514;13.192;2023-05-03T03:30:00;8.50;99.90
9810;DHT22;4944;52.514;13.192;2023-05-03T03:32:27;8.60;99.90
9810;DHT22;4944;52.514;13.192;2023-05-03T03:34:54;8.60;99.90
9810;DHT22;4944;52.514;13.192;2023-05-03T03:37:21;8.60;99.90
9810;DHT22;4944;52.514;13.192;2023-05-03T03:39:48;8.60;99.90
9810;DHT22;4944;52.514;13.192;2023-05-03T03:42:16;8.50;99.90
9810;DHT22;4944;52.514;13.192;2023-05-03T03:44:43;8.40;99.90
9810;DHT22;4944;52.514;13.192;2023-05-03T03:47:10;8.40;99.90
9810;DHT22;4944;52.514;13.192;2023-05-03T03:49:37;8.40;99.90
9810;DHT22;4944;52.514;13.192;2023-05-03T03:52:04;8.30;99.90
9810;DHT22;4944;52.514;13.192;2023-05-03T03:54:31;8.30;99.90
9810;DHT22;4944;52.514;13.192;2023-05-03T03:56:59;8.30;99.90
9810;DHT22;4944;52.514;13.192;2023-05-03T03:59:29;8.30;99.90
9810;DHT22;4944;52.514;13.192;2023-05-03T04:01:56;8.20;99.90
9810;DHT22;4944;52.514;13.192;2023-05-03T04:04:23;8.20;99.90
9810;DHT22;4944;52.514;13.192;2023-05-03T04:06:50;8.20;99.90
9810;DHT22;4944;52.514;13.192;2023-05-03T04:09:16;8.10;99.90
9810;DHT22;4944;52.514;13.192;2023-05-03T04:11:43;8.10;99.90
9810;DHT22;4944;52.514;13.192;2023-05-03T04:14:10;8.10;99.90
9810;DHT22;4944;52.514;13.192;2023-05-03T04:16:39;8.10;99.90
9810;DHT22;4944;52.514;13.192;2023-05-03T04:19:06;8.10;99.90
9810;DHT22;4944;52.514;13.192;2023-05-03T04:21:33;8.10;99.90
9810;DHT22;4944;52.514;13.192;2023-05-03T04:23:59;8.10;99.90
9810;DHT22;4944;52.514;13.192;2023-05-03T04:26:30;8.10;99.90
9810;DHT22;4944;52.514;13.192;2023-05-03T04:28:57;8.10;99.90
9810;DHT22;4944;52.514;13.192;2023-05-03T04:31:24;8.10;99.90
9810;DHT22;4944;52.514;13.192;2023-05-03T04:33:52;8.20;99.90
9810;DHT22;4944;52.514;13.192;2023-05-03T04:36:19;8.20;99.90
9810;DHT22;4944;52.514;13.192;2023-05-03T04:38:50;8.20;99.90
9810;DHT22;4944;52.514;13.192;2023-05-03T04:41:17;8.20;99.90
9810;DHT22;4944;52.514;13.192;2023-05-03T04:43:43;8.20;99.90
9810;DHT22;4944;52.514;13.192;2023-05-03T04:46:10;8.20;99.90
9810;DHT22;4944;52.514;13.192;2023-05-03T04:48:37;8.20;99.90
9810;DHT22;4944;52.514;13.192;2023-05-03T04:51:05;8.10;99.90
9810;DHT22;4944;52.514;13.192;2023-05-03T04:53:32;8.10;99.90
9810;DHT22;4944;52.514;13.192;2023-05-03T04:55:59;8.00;99.90
9810;DHT22;4944;52.514;13.192;2023-05-03T04:58:26;7.90;99.90
9810;DHT22;4944;52.514;13.192;2023-05-03T05:00:53;7.90;99.90
9810;DHT22;4944;52.514;13.192;2023-05-03T05:03:20;7.90;99.90
9810;DHT22;4944;52.514;13.192;2023-05-03T05:05:47;7.90;99.90
9810;DHT22;4944;52.514;13.192;2023-05-03T05:08:15;8.00;99.90
9810;DHT22;4944;52.514;13.192;2023-05-03T05:10:42;8.10;99.90
9810;DHT22;4944;52.514;13.192;2023-05-03T05:13:09;8.10;99.90
9810;DHT22;4944;52.514;13.192;2023-05-03T05:15:36;8.20;99.90
9810;DHT22;4944;52.514;13.192;2023-05-03T05:18:03;8.20;99.90
9810;DHT22;4944;52.514;13.192;2023-05-03T05:20:30;8.30;99.90
9810;DHT22;4944;52.514;13.192;2023-05-03T05:22:57;8.40;99.90
9810;DHT22;4944;52.514;13.192;2023-05-03T05:25:25;8.50;99.90
9810;DHT22;4944;52.514;13.192;2023-05-03T05:27:52;8.50;99.90
9810;DHT22;4944;52.514;13.192;2023-05-03T05:30:19;8.40;99.90
9810;DHT22;4944;52.514;13.192;2023-05-03T05:32:47;8.10;99.90
9810;DHT22;4944;52.514;13.192;2023-05-03T05:35:14;8.00;99.90
9810;DHT22;4944;52.514;13.192;2023-05-03T05:37:43;7.80;99.90
9810;DHT22;4944;52.514;13.192;2023-05-03T05:40:11;7.90;99.90
9810;DHT22;4944;52.514;13.192;2023-05-03T05:42:39;7.90;99.90
9810;DHT22;4944;52.514;13.192;2023-05-03T05:45:07;7.90;99.90
9810;DHT22;4944;52.514;13.192;2023-05-03T05:47:34;7.90;99.90
9810;DHT22;4944;52.514;13.192;2023-05-03T05:50:01;7.90;99.90
9810;DHT22;4944;52.514;13.192;2023-05-03T05:52:28;7.90;99.90
9810;DHT22;4944;52.514;13.192;2023-05-03T05:54:55;7.90;99.90
9810;DHT22;4944;52.514;13.192;2023-05-03T05:57:22;8.00;99.90
9810;DHT22;4944;52.514;13.192;2023-05-03T05:59:50;8.10;99.90
9810;DHT22;4944;52.514;13.192;2023-05-03T06:02:17;8.20;99.90
9810;DHT22;4944;52.514;13.192;2023-05-03T06:04:47;8.30;99.90
9810;DHT22;4944;52.514;13.192;2023-05-03T06:07:14;8.30;99.90
9810;DHT22;4944;52.514;13.192;2023-05-03T06:09:41;8.30;99.90
9810;DHT22;4944;52.514;13.192;2023-05-03T06:12:08;8.30;99.90
9810;DHT22;4944;52.514;13.192;2023-05-03T06:14:36;8.20;99.90
9810;DHT22;4944;52.514;13.192;2023-05-03T06:17:04;8.30;99.90
9810;DHT22;4944;52.514;13.192;2023-05-03T06:19:31;8.30;99.90
9810;DHT22;4944;52.514;13.192;2023-05-03T06:21:58;8.30;99.90
9810;DHT22;4944;52.514;13.192;2023-05-03T06:24:24;8.50;99.90
9810;DHT22;4944;52.514;13.192;2023-05-03T06:26:55;8.50;99.90
9810;DHT22;4944;52.514;13.192;2023-05-03T06:29:23;8.70;99.90
9810;DHT22;4944;52.514;13.192;2023-05-03T06:31:50;8.80;99.90
9810;DHT22;4944;52.514;13.192;2023-05-03T06:34:19;8.80;99.90
9810;DHT22;4944;52.514;13.192;2023-05-03T06:36:47;8.90;99.90
9810;DHT22;4944;52.514;13.192;2023-05-03T06:39:14;9.00;99.90
9810;DHT22;4944;52.514;13.192;2023-05-03T06:41:41;9.00;99.90
9810;DHT22;4944;52.514;13.192;2023-05-03T06:44:08;9.10;99.90
9810;DHT22;4944;52.514;13.192;2023-05-03T06:46:35;9.10;99.90
9810;DHT22;4944;52.514;13.192;2023-05-03T06:49:02;9.10;99.90
9810;DHT22;4944;52.514;13.192;2023-05-03T06:51:30;9.10;99.90
9810;DHT22;4944;52.514;13.192;2023-05-03T06:53:59;9.00;99.90
9810;DHT22;4944;52.514;13.192;2023-05-03T06:56:31;9.10;99.90
9810;DHT22;4944;52.514;13.192;2023-05-03T06:58:58;9.10;99.90
9810;DHT22;4944;52.514;13.192;2023-05-03T07:01:25;9.10;99.90
9810;DHT22;4944;52.514;13.192;2023-05-03T07:03:52;9.10;99.90
9810;DHT22;4944;52.514;13.192;2023-05-03T07:06:19;9.10;99.90
9810;DHT22;4944;52.514;13.192;2023-05-03T07:08:49;9.10;99.90
9810;DHT22;4944;52.514;13.192;2023-05-03T07:11:16;9.00;99.90
9810;DHT22;4944;52.514;13.192;2023-05-03T07:13:43;9.00;99.90
9810;DHT22;4944;52.514;13.192;2023-05-03T07:16:10;9.10;99.90
9810;DHT22;4944;52.514;13.192;2023-05-03T07:18:38;9.10;99.90
9810;DHT22;4944;52.514;13.192;2023-05-03T07:21:05;9.20;99.90
9810;DHT22;4944;52.514;13.192;2023-05-03T07:23:33;9.30;99.90
9810;DHT22;4944;52.514;13.192;2023-05-03T07:26:01;9.30;99.90
9810;DHT22;4944;52.514;13.192;2023-05-03T07:28:28;9.40;99.90
9810;DHT22;4944;52.514;13.192;2023-05-03T07:30:55;9.40;99.90
9810;DHT22;4944;52.514;13.192;2023-05-03T07:33:22;9.40;99.90
9810;DHT22;4944;52.514;13.192;2023-05-03T07:35:49;9.50;99.90
9810;DHT22;4944;52.514;13.192;2023-05-03T07:38:16;9.50;99.90
9810;DHT22;4944;52.514;13.192;2023-05-03T07:40:43;9.50;99.90
9810;DHT22;4944;52.514;13.192;2023-05-03T07:43:12;9.60;99.90
9810;DHT22;4944;52.514;13.192;2023-05-03T07:45:41;9.70;99.90
9810;DHT22;4944;52.514;13.192;2023-05-03T07:48:08;9.80;99.90
9810;DHT22;4944;52.514;13.192;2023-05-03T07:50:34;9.90;99.90
9810;DHT22;4944;52.514;13.192;2023-05-03T07:53:01;10.00;99.90
9810;DHT22;4944;52.514;13.192;2023-05-03T07:55:28;9.90;99.90
9810;DHT22;4944;52.514;13.192;2023-05-03T07:57:57;9.90;99.90
9810;DHT22;4944;52.514;13.192;2023-05-03T08:00:26;9.90;99.90
9810;DHT22;4944;52.514;13.192;2023-05-03T08:02:53;10.00;99.90
9810;DHT22;4944;52.514;13.192;2023-05-03T08:05:21;10.00;99.90
9810;DHT22;4944;52.514;13.192;2023-05-03T08:07:48;10.20;99.90
9810;DHT22;4944;52.514;13.192;2023-05-03T08:10:15;10.20;99.90
9810;DHT22;4944;52.514;13.192;2023-05-03T08:12:43;10.30;99.90
9810;DHT22;4944;52.514;13.192;2023-05-03T08:15:10;10.20;99.90
9810;DHT22;4944;52.514;13.192;2023-05-03T08:17:43;10.30;99.90
9810;DHT22;4944;52.514;13.192;2023-05-03T08:20:11;10.40;99.90
9810;DHT22;4944;52.514;13.192;2023-05-03T08:22:39;10.30;99.90
9810;DHT22;4944;52.514;13.192;2023-05-03T08:25:06;10.40;99.90
9810;DHT22;4944;52.514;13.192;2023-05-03T08:27:33;10.50;99.90
9810;DHT22;4944;52.514;13.192;2023-05-03T08:30:01;10.50;99.90
9810;DHT22;4944;52.514;13.192;2023-05-03T08:32:28;10.50;99.90
9810;DHT22;4944;52.514;13.192;2023-05-03T08:34:57;10.40;99.90
9810;DHT22;4944;52.514;13.192;2023-05-03T08:37:24;10.50;99.90
9810;DHT22;4944;52.514;13.192;2023-05-03T08:39:50;10.50;99.90
9810;DHT22;4944;52.514;13.192;2023-05-03T08:42:17;10.60;99.90
9810;DHT22;4944;52.514;13.192;2023-05-03T08:44:46;10.70;99.90
9810;DHT22;4944;52.514;13.192;2023-05-03T08:47:14;10.80;99.90
9810;DHT22;4944;52.514;13.192;2023-05-03T08:49:43;10.90;99.90
9810;DHT22;4944;52.514;13.192;2023-05-03T08:52:13;10.90;99.90
9810;DHT22;4944;52.514;13.192;2023-05-03T08:54:40;10.80;99.90
9810;DHT22;4944;52.514;13.192;2023-05-03T08:57:09;10.90;99.90
9810;DHT22;4944;52.514;13.192;2023-05-03T08:59:46;11.00;99.90
9810;DHT22;4944;52.514;13.192;2023-05-03T09:02:14;11.10;99.90
9810;DHT22;4944;52.514;13.192;2023-05-03T09:04:41;11.10;99.90
9810;DHT22;4944;52.514;13.192;2023-05-03T09:07:11;11.20;99.90
9810;DHT22;4944;52.514;13.192;2023-05-03T09:09:40;11.30;99.90
9810;DHT22;4944;52.514;13.192;2023-05-03T09:12:07;11.30;99.90
9810;DHT22;4944;52.514;13.192;2023-05-03T09:14:41;11.50;99.90
9810;DHT22;4944;52.514;13.192;2023-05-03T09:17:15;11.60;99.90
9810;DHT22;4944;52.514;13.192;2023-05-03T09:19:52;11.70;99.90
9810;DHT22;4944;52.514;13.192;2023-05-03T09:22:21;11.80;99.90
9810;DHT22;4944;52.514;13.192;2023-05-03T09:24:52;11.80;99.90
9810;DHT22;4944;52.514;13.192;2023-05-03T09:27:20;11.80;99.90
9810;DHT22;4944;52.514;13.192;2023-05-03T09:29:47;11.70;99.90
9810;DHT22;4944;52.514;13.192;2023-05-03T09:32:14;11.70;99.90
9810;DHT22;4944;52.514;13.192;2023-05-03T09:34:43;11.60;99.90
9810;DHT22;4944;52.514;13.192;2023-05-03T09:37:10;11.70;99.90
9810;DHT22;4944;52.514;13.192;2023-05-03T09:39:41;11.80;99.90
9810;DHT22;4944;52.514;13.192;2023-05-03T09:42:13;11.90;99.90
9810;DHT22;4944;52.514;13.192;2023-05-03T09:44:44;12.00;99.90
9810;DHT22;4944;52.514;13.192;2023-05-03T09:47:14;12.10;99.90
9810;DHT22;4944;52.514;13.192;2023-05-03T09:49:41;12.10;99.90
9810;DHT22;4944;52.514;13.192;2023-05-03T09:52:09;12.20;99.90
9810;DHT22;4944;52.514;13.192;2023-05-03T09:54:36;12.10;99.50
9810;DHT22;4944;52.514;13.192;2023-05-03T09:57:06;12.20;99.70
9810;DHT22;4944;52.514;13.192;2023-05-03T09:59:34;12.20;99.80
9810;DHT22;4944;52.514;13.192;2023-05-03T10:02:02;12.30;99.80
9810;DHT22;4944;52.514;13.192;2023-05-03T10:04:37;12.40;99.80
9810;DHT22;4944;52.514;13.192;2023-05-03T10:07:08;12.40;99.60
9810;DHT22;4944;52.514;13.192;2023-05-03T10:09:39;12.50;99.90
9810;DHT22;4944;52.514;13.192;2023-05-03T10:12:11;12.60;99.80
9810;DHT22;4944;52.514;13.192;2023-05-03T10:14:40;12.80;99.90
9810;DHT22;4944;52.514;13.192;2023-05-03T10:17:11;13.00;99.90
9810;DHT22;4944;52.514;13.192;2023-05-03T10:19:42;13.00;99.90
9810;DHT22;4944;52.514;13.192;2023-05-03T10:22:11;13.10;99.90
9810;DHT22;4944;52.514;13.192;2023-05-03T10:25:06;13.20;99.50
9810;DHT22;4944;52.514;13.192;2023-05-03T10:27:48;13.30;99.70
9810;DHT22;4944;52.514;13.192;2023-05-03T10:30:26;13.40;99.70
9810;DHT22;4944;52.514;13.192;2023-05-03T10:32:55;13.70;99.90
9810;DHT22;4944;52.514;13.192;2023-05-03T10:35:25;13.90;99.30
9810;DHT22;4944;52.514;13.192;2023-05-03T10:37:53;14.00;99.60
9810;DHT22;4944;52.514;13.192;2023-05-03T10:40:22;13.90;98.90
9810;DHT22;4944;52.514;13.192;2023-05-03T10:42:53;13.70;98.40
9810;DHT22;4944;52.514;13.192;2023-05-03T10:45:25;13.60;99.20
9810;DHT22;4944;52.514;13.192;2023-05-03T10:48:15;13.60;99.50
9810;DHT22;4944;52.514;13.192;2023-05-03T10:50:45;13.60;99.20
9810;DHT22;4944;52.514;13.192;2023-05-03T10:53:36;13.70;99.10
9810;DHT22;4944;52.514;13.192;2023-05-03T10:56:04;13.80;98.70
9810;DHT22;4944;52.514;13.192;2023-05-03T10:58:36;13.90;98.60
9810;DHT22;4944;52.514;13.192;2023-05-03T11:01:04;13.80;97.50
9810;DHT22;4944;52.514;13.192;2023-05-03T11:03:44;13.90;97.90
9810;DHT22;4944;52.514;13.192;2023-05-03T11:06:30;14.10;97.30
9810;DHT22;4944;52.514;13.192;2023-05-03T11:08:59;14.20;97.80
9810;DHT22;4944;52.514;13.192;2023-05-03T11:11:26;14.40;97.80
9810;DHT22;4944;52.514;13.192;2023-05-03T11:13:54;14.50;96.70
9810;DHT22;4944;52.514;13.192;2023-05-03T11:16:21;14.60;96.90
9810;DHT22;4944;52.514;13.192;2023-05-03T11:18:49;14.70;97.60
9810;DHT22;4944;52.514;13.192;2023-05-03T11:21:16;14.80;97.10
9810;DHT22;4944;52.514;13.192;2023-05-03T11:23:44;15.00;97.40
9810;DHT22;4944;52.514;13.192;2023-05-03T11:26:12;15.00;97.00
9810;DHT22;4944;52.514;13.192;2023-05-03T11:28:41;14.90;97.20
9810;DHT22;4944;52.514;13.192;2023-05-03T11:31:10;14.70;97.20
9810;DHT22;4944;52.514;13.192;2023-05-03T11:33:38;14.70;97.70
9810;DHT22;4944;52.514;13.192;2023-05-03T11:36:06;14.80;97.70
9810;DHT22;4944;52.514;13.192;2023-05-03T11:38:37;15.10;98.50
9810;DHT22;4944;52.514;13.192;2023-05-03T11:41:11;15.40;98.60
9810;DHT22;4944;52.514;13.192;2023-05-03T11:43:42;15.40;97.50
9810;DHT22;4944;52.514;13.192;2023-05-03T11:46:11;15.40;97.10
9810;DHT22;4944;52.514;13.192;2023-05-03T11:48:38;15.30;96.90
9810;DHT22;4944;52.514;13.192;2023-05-03T11:51:07;15.30;97.20
9810;DHT22;4944;52.514;13.192;2023-05-03T11:53:36;15.50;97.70
9810;DHT22;4944;52.514;13.192;2023-05-03T11:56:06;15.60;96.80
9810;DHT22;4944;52.514;13.192;2023-05-03T11:58:34;15.80;96.20
9810;DHT22;4944;52.514;13.192;2023-05-03T12:01:01;15.90;96.10
9810;DHT22;4944;52.514;13.192;2023-05-03T12:03:31;16.10;96.30
9810;DHT22;4944;52.514;13.192;2023-05-03T12:06:00;16.30;96.10
9810;DHT22;4944;52.514;13.192;2023-05-03T12:08:27;16.50;95.70
9810;DHT22;4944;52.514;13.192;2023-05-03T12:10:55;16.50;96.00
9810;DHT22;4944;52.514;13.192;2023-05-03T12:13:30;16.70;96.00
9810;DHT22;4944;52.514;13.192;2023-05-03T12:15:57;16.90;95.90
9810;DHT22;4944;52.514;13.192;2023-05-03T12:18:25;17.00;95.60
9810;DHT22;4944;52.514;13.192;2023-05-03T12:20:57;17.10;94.80
9810;DHT22;4944;52.514;13.192;2023-05-03T12:23:24;17.20;94.70
9810;DHT22;4944;52.514;13.192;2023-05-03T12:25:51;17.20;94.60
9810;DHT22;4944;52.514;13.192;2023-05-03T12:28:18;17.10;94.70
9810;DHT22;4944;52.514;13.192;2023-05-03T12:30:45;17.30;94.60
9810;DHT22;4944;52.514;13.192;2023-05-03T12:33:12;17.40;94.90
9810;DHT22;4944;52.514;13.192;2023-05-03T12:35:40;17.40;94.50
9810;DHT22;4944;52.514;13.192;2023-05-03T12:38:08;17.30;94.80
9810;DHT22;4944;52.514;13.192;2023-05-03T12:40:37;17.30;94.20
9810;DHT22;4944;52.514;13.192;2023-05-03T12:43:05;17.40;93.30
9810;DHT22;4944;52.514;13.192;2023-05-03T12:45:32;17.50;93.30
9810;DHT22;4944;52.514;13.192;2023-05-03T12:47:59;17.40;92.70
9810;DHT22;4944;52.514;13.192;2023-05-03T12:50:25;17.50;93.60
9810;DHT22;4944;52.514;13.192;2023-05-03T12:52:52;17.70;93.50
9810;DHT22;4944;52.514;13.192;2023-05-03T12:55:21;17.90;93.50
9810;DHT22;4944;52.514;13.192;2023-05-03T12:57:48;17.90;93.30
9810;DHT22;4944;52.514;13.192;2023-05-03T13:00:15;18.10;93.70
9810;DHT22;4944;52.514;13.192;2023-05-03T13:02:44;18.20;92.60
9810;DHT22;4944;52.514;13.192;2023-05-03T13:05:11;18.30;93.10
9810;DHT22;4944;52.514;13.192;2023-05-03T13:07:39;18.30;93.40
9810;DHT22;4944;52.514;13.192;2023-05-03T13:10:06;18.50;93.20
9810;DHT22;4944;52.514;13.192;2023-05-03T13:12:34;18.20;92.80
9810;DHT22;4944;52.514;13.192;2023-05-03T13:15:02;18.20;93.40
9810;DHT22;4944;52.514;13.192;2023-05-03T13:17:30;18.20;93.00
9810;DHT22;4944;52.514;13.192;2023-05-03T13:19:57;18.50;93.50
9810;DHT22;4944;52.514;13.192;2023-05-03T13:22:24;18.70;93.60
9810;DHT22;4944;52.514;13.192;2023-05-03T13:24:51;18.80;93.30
9810;DHT22;4944;52.514;13.192;2023-05-03T13:27:18;18.90;92.50
9810;DHT22;4944;52.514;13.192;2023-05-03T13:29:47;19.00;93.30
9810;DHT22;4944;52.514;13.192;2023-05-03T13:32:14;19.00;92.80
9810;DHT22;4944;52.514;13.192;2023-05-03T13:34:41;19.10;92.00
9810;DHT22;4944;52.514;13.192;2023-05-03T13:37:07;19.20;92.00
9810;DHT22;4944;52.514;13.192;2023-05-03T13:39:35;19.30;91.90
9810;DHT22;4944;52.514;13.192;2023-05-03T13:42:03;19.40;91.60
9810;DHT22;4944;52.514;13.192;2023-05-03T13:44:29;19.60;91.50
9810;DHT22;4944;52.514;13.192;2023-05-03T13:46:58;19.70;91.80
9810;DHT22;4944;52.514;13.192;2023-05-03T13:49:26;19.70;91.20
9810;DHT22;4944;52.514;13.192;2023-05-03T13:51:52;19.70;90.50
9810;DHT22;4944;52.514;13.192;2023-05-03T13:54:19;19.50;90.40
9810;DHT22;4944;52.514;13.192;2023-05-03T13:56:46;19.50;90.30
9810;DHT22;4944;52.514;13.192;2023-05-03T13:59:13;19.50;90.50
9810;DHT22;4944;52.514;13.192;2023-05-03T14:01:40;19.70;90.50
9810;DHT22;4944;52.514;13.192;2023-05-03T14:04:09;19.70;90.60
9810;DHT22;4944;52.514;13.192;2023-05-03T14:06:38;19.80;90.70
9810;DHT22;4944;52.514;13.192;2023-05-03T14:09:06;19.90;90.30
9810;DHT22;4944;52.514;13.192;2023-05-03T14:11:33;19.90;90.40
9810;DHT22;4944;52.514;13.192;2023-05-03T14:14:00;20.00;90.20
9810;DHT22;4944;52.514;13.192;2023-05-03T14:16:27;20.00;90.30
9810;DHT22;4944;52.514;13.192;2023-05-03T14:18:54;20.10;90.10
9810;DHT22;4944;52.514;13.192;2023-05-03T14:21:23;20.00;89.30
9810;DHT22;4944;52.514;13.192;2023-05-03T14:23:50;19.90;89.80
9810;DHT22;4944;52.514;13.192;2023-05-03T14:26:18;20.00;90.20
9810;DHT22;4944;52.514;13.192;2023-05-03T14:28:45;20.10;90.60
9810;DHT22;4944;52.514;13.192;2023-05-03T14:31:12;20.20;90.20
9810;DHT22;4944;52.514;13.192;2023-05-03T14:33:38;19.60;90.00
9810;DHT22;4944;52.514;13.192;2023-05-03T14:36:06;19.70;90.40
9810;DHT22;4944;52.514;13.192;2023-05-03T14:38:35;19.70;90.60
9810;DHT22;4944;52.514;13.192;2023-05-03T14:41:02;19.70;90.20
9810;DHT22;4944;52.514;13.192;2023-05-03T14:43:29;19.60;90.20
9810;DHT22;4944;52.514;13.192;2023-05-03T14:45:56;19.30;90.30
9810;DHT22;4944;52.514;13.192;2023-05-03T14:48:23;19.50;90.40
9810;DHT22;4944;52.514;13.192;2023-05-03T14:50:50;19.60;90.30
9810;DHT22;4944;52.514;13.192;2023-05-03T14:53:17;19.80;90.70
9810;DHT22;4944;52.514;13.192;2023-05-03T14:55:46;19.80;90.40
9810;DHT22;4944;52.514;13.192;2023-05-03T14:58:13;19.60;90.00
9810;DHT22;4944;52.514;13.192;2023-05-03T15:00:40;19.60;90.00
9810;DHT22;4944;52.514;13.192;2023-05-03T15:03:07;19.50;89.70
9810;DHT22;4944;52.514;13.192;2023-05-03T15:05:42;19.70;90.00
9810;DHT22;4944;52.514;13.192;2023-05-03T15:08:09;19.80;90.00
9810;DHT22;4944;52.514;13.192;2023-05-03T15:10:37;19.90;89.60
9810;DHT22;4944;52.514;13.192;2023-05-03T15:13:06;19.90;90.00
9810;DHT22;4944;52.514;13.192;2023-05-03T15:15:34;19.70;89.80
9810;DHT22;4944;52.514;13.192;2023-05-03T15:18:00;19.40;89.90
9810;DHT22;4944;52.514;13.192;2023-05-03T15:20:27;19.20;90.00
9810;DHT22;4944;52.514;13.192;2023-05-03T15:22:54;19.30;90.00
9810;DHT22;4944;52.514;13.192;2023-05-03T15:25:21;19.30;90.10
9810;DHT22;4944;52.514;13.192;2023-05-03T15:27:49;18.80;90.40
9810;DHT22;4944;52.514;13.192;2023-05-03T15:30:18;18.60;90.90
9810;DHT22;4944;52.514;13.192;2023-05-03T15:32:45;18.80;90.60
9810;DHT22;4944;52.514;13.192;2023-05-03T15:35:12;19.10;90.40
9810;DHT22;4944;52.514;13.192;2023-05-03T15:37:39;19.20;90.60
9810;DHT22;4944;52.514;13.192;2023-05-03T15:40:08;19.30;90.00
9810;DHT22;4944;52.514;13.192;2023-05-03T15:42:36;19.40;90.30
9810;DHT22;4944;52.514;13.192;2023-05-03T15:45:04;19.40;89.60
9810;DHT22;4944;52.514;13.192;2023-05-03T15:47:33;19.50;90.00
9810;DHT22;4944;52.514;13.192;2023-05-03T15:50:00;19.70;90.00
9810;DHT22;4944;52.514;13.192;2023-05-03T15:52:27;19.70;88.50
9810;DHT22;4944;52.514;13.192;2023-05-03T15:54:54;19.20;89.20
9810;DHT22;4944;52.514;13.192;2023-05-03T15:57:21;18.70;90.20
9810;DHT22;4944;52.514;13.192;2023-05-03T15:59:49;18.50;90.10